Time;durP1;ratioP1;P1;durP2;ratioP2;P2;SDS_P1;SDS_P2;PMS_P1;PMS_P2;Temp;Humidity;BMP_temperature;BMP_pressure;BME280_temperature;BME280_humidity;BME280_pressure;Samples;Min_cycle;Max_cycle;Signal;HPM_P1;HPM_P2
2022/05/31 00:01:59;;;;;;;5.03;3.50;;;;;;;16.86;65.15;94825.56;5092312;28;20472;-68
2022/05/31 00:04:25;;;;;;;6.07;3.63;;;;;;;16.84;64.37;94821.47;5092558;28;20044;-68
2022/05/31 00:06:50;;;;;;;8.60;3.88;;;;;;;16.82;64.56;94821.63;5092847;28;20035;-68
2022/05/31 00:09:16;;;;;;;8.43;3.95;;;;;;;16.86;64.21;94814.25;5109484;28;20024;-68
2022/05/31 00:11:41;;;;;;;6.15;4.05;;;;;;;16.83;64.51;94825.91;5109718;28;20092;-68
2022/05/31 00:14:07;;;;;;;8.35;3.72;;;;;;;16.77;64.57;94809.97;5075538;28;20024;-68
2022/05/31 00:16:32;;;;;;;7.70;3.58;;;;;;;16.74;64.82;94809.31;5107344;28;20065;-69
2022/05/31 00:18:58;;;;;;;8.30;4.20;;;;;;;16.75;65.08;94810.94;5109713;28;20485;-68
2022/05/31 00:21:38;;;;;;;6.03;4.03;;;;;;;16.73;65.08;94814.72;5110750;28;20109;-68
2022/05/31 00:24:06;;;;;;;8.38;3.80;;;;;;;16.73;65.43;94822.59;5094610;28;20039;-69
2022/05/31 00:26:31;;;;;;;6.90;3.40;;;;;;;16.71;65.38;94824.53;5109583;28;20031;-69
2022/05/31 00:28:57;;;;;;;8.88;4.18;;;;;;;16.65;65.41;94820.78;5110776;28;20043;-68
2022/05/31 00:31:22;;;;;;;4.85;3.75;;;;;;;16.58;65.44;94821.63;5110623;28;20028;-68
2022/05/31 00:33:47;;;;;;;7.50;3.83;;;;;;;16.50;65.77;94815.38;5110787;28;20486;-68
2022/05/31 00:36:13;;;;;;;5.57;3.85;;;;;;;16.47;65.60;94820.94;5113445;28;20121;-69
2022/05/31 00:38:38;;;;;;;5.72;3.55;;;;;;;16.38;65.83;94821.09;5113918;28;20024;-68
2022/05/31 00:41:23;;;;;;;7.35;3.97;;;;;;;16.36;65.80;94828.31;5096488;28;20032;-68
2022/05/31 00:43:57;;;;;;;4.07;3.50;;;;;;;16.35;65.65;94824.84;5114439;28;20039;-68
2022/05/31 00:46:22;;;;;;;5.30;3.50;;;;;;;16.29;65.56;94817.63;5096041;28;20549;-68
2022/05/31 00:48:55;;;;;;;8.05;3.95;;;;;;;16.26;65.53;94815.34;5096100;28;20169;-68
2022/05/31 00:51:21;;;;;;;5.07;3.95;;;;;;;16.20;65.91;94813.38;5097096;28;20544;-68
2022/05/31 00:53:49;;;;;;;5.18;3.85;;;;;;;16.13;66.10;94817.59;5113498;28;20028;-69
2022/05/31 00:56:20;;;;;;;7.10;4.32;;;;;;;16.11;66.31;94816.97;5112995;28;20497;-68
2022/05/31 00:58:58;;;;;;;6.95;3.53;;;;;;;16.10;66.31;94823.97;5113016;28;20067;-68
2022/05/31 01:01:23;;;;;;;6.28;3.70;;;;;;;15.99;66.82;94827.75;5092597;28;20051;-68
2022/05/31 01:03:49;;;;;;;8.70;3.97;;;;;;;15.92;66.85;94831.16;5101759;28;20505;-69
2022/05/31 01:06:14;;;;;;;7.93;4.13;;;;;;;15.81;66.61;94825.22;5095830;28;20027;-69
2022/05/31 01:08:45;;;;;;;5.97;3.90;;;;;;;15.74;66.79;94823.38;5095627;28;20032;-68
2022/05/31 01:11:11;;;;;;;;;;;;;;;15.84;67.03;94840.63;5081083;28;20042;-68
2022/05/31 01:13:36;;;;;;;4.55;3.53;;;;;;;15.81;67.47;94834.88;5112704;28;19994;-68
2022/05/31 01:16:09;;;;;;;7.72;3.72;;;;;;;15.78;67.52;94832.59;5113231;28;20463;-68
2022/05/31 01:18:34;;;;;;;6.85;3.95;;;;;;;15.81;67.43;94834.88;5095976;28;20031;-68
2022/05/31 01:21:00;;;;;;;7.68;3.92;;;;;;;15.80;67.22;94838.50;5112652;28;20443;-68
2022/05/31 01:23:26;;;;;;;8.60;3.92;;;;;;;15.85;67.47;94825.72;5095394;28;20086;-68
2022/05/31 01:26:06;;;;;;;5.82;4.45;;;;;;;15.85;67.66;94830.94;5111709;28;20054;-69
2022/05/31 01:28:56;;;;;;;4.35;3.90;;;;;;;15.82;68.11;94841.75;5095864;28;20063;-68
2022/05/31 01:31:27;;;;;;;6.00;4.53;;;;;;;15.69;68.15;94836.97;5112076;28;20032;-68
2022/05/31 01:34:06;;;;;;;8.73;4.30;;;;;;;15.61;68.27;94837.72;5078806;28;20043;-68
2022/05/31 01:36:38;;;;;;;4.60;3.80;;;;;;;15.59;68.32;94846.72;5095578;28;20554;-68
2022/05/31 01:39:06;;;;;;;6.43;4.15;;;;;;;15.60;68.42;94838.72;5095720;28;20110;-68
2022/05/31 01:41:39;;;;;;;7.95;4.13;;;;;;;15.66;68.31;94832.03;5095411;28;20019;-68
2022/05/31 01:44:06;;;;;;;7.28;3.80;;;;;;;15.69;68.39;94836.97;5095442;28;20076;-68
2022/05/31 01:46:33;;;;;;;6.57;4.00;;;;;;;15.79;68.22;94831.59;5110920;28;20024;-68
2022/05/31 01:48:59;;;;;;;5.70;3.97;;;;;;;15.72;68.37;94835.84;5111974;28;20566;-68
2022/05/31 01:51:25;;;;;;;7.47;3.83;;;;;;;15.73;68.34;94833.03;5094776;28;20032;-68
2022/05/31 01:53:50;;;;;;;7.97;3.90;;;;;;;15.71;68.47;94832.41;5094695;28;20035;-68
2022/05/31 01:56:16;;;;;;;4.88;4.00;;;;;;;15.69;68.66;94841.41;5094933;28;20416;-68
2022/05/31 01:58:42;;;;;;;7.20;4.25;;;;;;;15.68;68.72;94837.94;5094894;28;20027;-68
2022/05/31 02:01:08;;;;;;;4.40;3.90;;;;;;;15.64;68.47;94831.34;5094505;28;20027;-68
2022/05/31 02:03:34;;;;;;;6.32;4.32;;;;;;;15.65;68.55;94846.88;5077608;28;20519;-68
2022/05/31 02:05:59;;;;;;;7.25;4.18;;;;;;;15.63;68.43;94842.81;5112988;28;20023;-68
2022/05/31 02:08:29;;;;;;;5.93;4.13;;;;;;;15.51;68.83;94844.88;5111745;28;20108;-68
2022/05/31 02:10:56;;;;;;;6.53;4.10;;;;;;;15.48;68.73;94845.19;5111656;28;20058;-68
2022/05/31 02:13:21;;;;;;;9.07;3.63;;;;;;;15.47;68.90;94843.56;5111859;28;20248;-69
2022/05/31 02:15:47;;;;;;;7.75;3.90;;;;;;;15.35;69.09;94829.06;5111955;28;20058;-69
2022/05/31 02:18:12;;;;;;;7.30;4.35;;;;;;;15.40;69.00;94837.28;5111635;28;20024;-68
2022/05/31 02:20:38;;;;;;;4.88;3.90;;;;;;;15.38;69.12;94839.25;5094554;28;20061;-68
2022/05/31 02:23:04;;;;;;;6.32;3.92;;;;;;;15.36;69.43;94830.75;5112196;27;20028;-69
2022/05/31 02:25:29;;;;;;;8.48;4.32;;;;;;;15.44;69.23;94849.09;5111043;28;20034;-69
2022/05/31 02:27:55;;;;;;;7.75;4.03;;;;;;;15.28;69.23;94828.06;5111297;28;20035;-68
2022/05/31 02:30:21;;;;;;;5.55;4.38;;;;;;;15.37;69.16;94848.06;5111760;28;20046;-69
2022/05/31 02:32:46;;;;;;;6.80;4.10;;;;;;;15.39;69.03;94840.88;5111984;28;20402;-68
2022/05/31 02:35:11;;;;;;;7.43;4.18;;;;;;;15.39;69.04;94846.13;5111184;28;20028;-68
2022/05/31 02:37:37;;;;;;;7.70;4.00;;;;;;;15.34;69.10;94846.59;5110685;28;20076;-68
2022/05/31 02:40:03;;;;;;;6.47;4.20;;;;;;;15.26;69.48;94835.25;5094132;28;20055;-68
2022/05/31 02:42:29;;;;;;;6.20;4.22;;;;;;;15.25;69.48;94839.66;5094044;28;20028;-68
2022/05/31 02:44:54;;;;;;;6.00;3.83;;;;;;;15.28;69.64;94846.38;5111923;28;20093;-68
2022/05/31 02:47:20;;;;;;;6.63;4.20;;;;;;;15.24;69.38;94845.03;5110257;28;20039;-68
2022/05/31 02:49:46;;;;;;;6.07;4.10;;;;;;;15.24;69.37;94847.66;5093889;28;20035;-69
2022/05/31 02:52:11;;;;;;;6.45;4.07;;;;;;;15.17;69.36;94845.66;5093893;28;20053;-68
2022/05/31 02:54:37;;;;;;;4.70;3.97;;;;;;;15.17;69.57;94848.28;5110753;28;20418;-69
2022/05/31 02:57:03;;;;;;;5.88;4.05;;;;;;;15.14;69.35;94845.97;5111387;28;20035;-69
2022/05/31 02:59:28;;;;;;;10.18;4.10;;;;;;;15.14;69.46;94856.44;5111735;28;20440;-69
2022/05/31 03:01:53;;;;;;;6.43;4.13;;;;;;;15.11;69.77;94853.31;5110180;28;20039;-68
2022/05/31 03:04:19;;;;;;;5.03;3.97;;;;;;;15.02;70.04;94855.06;5110627;28;20055;-68
2022/05/31 03:06:45;;;;;;;6.65;4.20;;;;;;;15.01;70.39;94857.81;5093578;28;20035;-68
2022/05/31 03:09:10;;;;;;;5.57;4.10;;;;;;;14.98;70.15;94861.56;5110314;28;20247;-68
2022/05/31 03:12:10;;;;;;;8.75;4.03;;;;;;;15.01;70.29;94863.88;5110651;28;20032;-68
2022/05/31 03:14:35;;;;;;;7.38;4.30;;;;;;;15.05;69.93;94865.22;5102357;27;20051;-68
2022/05/31 03:17:04;;;;;;;7.03;3.63;;;;;;;15.06;69.98;94860.81;5111739;28;20043;-68
2022/05/31 03:19:32;;;;;;;4.93;4.13;;;;;;;15.10;69.78;94873.44;5111549;28;20451;-68
2022/05/31 03:22:01;;;;;;;5.22;4.20;;;;;;;15.12;69.64;94870.66;5093520;28;20050;-68
2022/05/31 03:24:38;;;;;;;8.05;4.32;;;;;;;15.11;69.58;94871.63;5076599;28;20035;-68
2022/05/31 03:27:05;;;;;;;9.02;4.35;;;;;;;15.12;69.58;94881.94;5094062;28;20409;-68
2022/05/31 03:29:30;;;;;;;6.80;4.22;;;;;;;15.12;69.54;94881.94;5109586;28;20031;-69
2022/05/31 03:31:56;;;;;;;6.00;4.07;;;;;;;15.10;69.63;94880.44;5110202;28;20073;-68
2022/05/31 03:34:21;;;;;;;6.28;4.35;;;;;;;15.09;69.76;94884.84;5110187;28;20547;-68
2022/05/31 03:36:47;;;;;;;5.57;4.70;;;;;;;15.07;70.56;94880.75;5092284;28;20409;-68
2022/05/31 03:39:12;;;;;;;5.10;4.50;;;;;;;14.96;71.39;94881.84;5111145;28;20028;-68
2022/05/31 03:41:38;;;;;;;8.93;5.25;;;;;;;14.92;72.21;94885.72;5110048;28;20031;-68
2022/05/31 03:44:04;;;;;;;5.85;5.00;;;;;;;14.87;72.33;94887.97;5092687;28;20433;-68
2022/05/31 03:46:29;;;;;;;8.55;5.07;;;;;;;14.83;73.39;94894.47;5110008;28;20031;-68
2022/05/31 03:48:55;;;;;;;7.07;5.65;;;;;;;14.73;73.58;94892.75;5111181;28;20512;-68
2022/05/31 03:51:20;;;;;;;8.25;5.43;;;;;;;14.76;73.83;94899.47;5110456;28;20059;-68
2022/05/31 03:53:45;;;;;;;7.32;5.38;;;;;;;14.72;74.17;94903.38;5111017;28;20043;-68
2022/05/31 03:56:11;;;;;;;7.70;5.55;;;;;;;14.68;74.46;94902.84;5109976;28;20027;-68
2022/05/31 03:58:37;;;;;;;7.25;5.63;;;;;;;14.73;74.31;94905.81;5092889;28;20031;-68
2022/05/31 04:01:03;;;;;;;10.70;5.60;;;;;;;14.93;74.01;94911.72;5109514;28;20527;-69
2022/05/31 04:03:29;;;;;;;8.73;5.45;;;;;;;15.14;73.28;94910.56;5109583;28;20044;-68
2022/05/31 04:05:54;;;;;;;8.60;5.22;;;;;;;15.55;71.55;94901.19;5111048;28;20031;-69
2022/05/31 04:08:20;;;;;;;7.72;5.07;;;;;;;16.23;69.50;94907.41;5111376;28;20092;-68
2022/05/31 04:10:46;;;;;;;11.93;4.68;;;;;;;16.79;66.79;94902.44;5113550;28;20119;-69
2022/05/31 04:13:11;;;;;;;6.68;4.28;;;;;;;17.40;64.04;94909.81;5097114;28;20023;-69
2022/05/31 04:15:37;;;;;;;9.30;4.50;;;;;;;17.94;61.94;94895.25;5113723;28;20145;-69
2022/05/31 04:18:04;;;;;;;6.53;4.15;;;;;;;18.48;59.92;94900.59;5113665;28;20043;-69
2022/05/31 04:20:30;;;;;;;6.93;4.38;;;;;;;18.97;58.25;94901.09;5113391;28;20036;-69
2022/05/31 04:25:39;;;;;;;5.50;3.80;;;;;;;19.89;55.37;94899.28;5113889;28;20042;-69
2022/05/31 04:28:05;;;;;;;5.65;4.38;;;;;;;20.33;54.56;94911.59;5113267;28;20032;-69
2022/05/31 04:30:30;;;;;;;5.18;3.80;;;;;;;20.66;52.85;94904.91;5113211;28;20032;-69
2022/05/31 04:32:56;;;;;;;6.57;4.15;;;;;;;21.14;51.78;94904.34;5096385;28;20036;-69
2022/05/31 04:35:21;;;;;;;6.43;3.90;;;;;;;21.54;50.37;94908.16;5095774;28;20516;-69
2022/05/31 04:37:47;;;;;;;4.93;3.60;;;;;;;21.74;50.07;94903.00;5117428;27;20466;-69
2022/05/31 04:40:12;;;;;;;7.68;3.83;;;;;;;21.68;49.99;94909.06;5102353;28;20041;-69
2022/05/31 04:42:39;;;;;;;6.20;3.63;;;;;;;21.80;49.86;94901.41;5094504;28;20066;-69
2022/05/31 04:45:05;;;;;;;4.22;3.30;;;;;;;21.93;49.13;94895.41;5113051;28;20477;-70
2022/05/31 04:47:31;;;;;;;5.53;3.60;;;;;;;21.37;50.91;94910.28;5114703;28;20028;-69
2022/05/31 04:49:57;;;;;;;5.45;3.50;;;;;;;20.96;52.03;94910.09;5114500;28;20485;-69
2022/05/31 04:52:22;;;;;;;5.22;3.47;;;;;;;20.90;52.63;94911.66;5114638;28;20106;-69
2022/05/31 04:54:48;;;;;;;6.35;3.70;;;;;;;20.95;52.58;94908.47;5113733;28;20416;-69
2022/05/31 04:57:13;;;;;;;9.05;4.00;;;;;;;20.86;52.57;94918.31;5113889;28;20028;-69
2022/05/31 04:59:39;;;;;;;6.38;3.78;;;;;;;20.81;53.21;94919.88;5094694;28;20031;-69
2022/05/31 05:02:04;;;;;;;9.55;4.07;;;;;;;20.83;52.73;94929.25;5117638;27;20034;-69
2022/05/31 05:04:29;;;;;;;5.40;3.78;;;;;;;20.80;52.75;94929.63;5113686;27;20035;-69
2022/05/31 05:06:56;;;;;;;7.38;4.10;;;;;;;20.76;52.92;94938.94;5114045;28;20032;-69
2022/05/31 05:09:21;;;;;;;5.82;4.18;;;;;;;20.85;53.19;94936.97;5112400;28;20596;-69
2022/05/31 05:11:47;;;;;;;6.35;3.80;;;;;;;20.89;52.45;94935.59;5112697;28;20032;-69
2022/05/31 05:14:12;;;;;;;5.50;4.07;;;;;;;20.87;53.31;94932.34;5113933;28;20031;-69
2022/05/31 05:16:38;;;;;;;8.75;3.65;;;;;;;20.92;52.75;94940.50;5114004;28;20031;-69
2022/05/31 05:19:03;;;;;;;5.72;4.28;;;;;;;20.94;52.78;94941.94;5113447;28;20481;-69
2022/05/31 05:21:29;;;;;;;7.13;3.63;;;;;;;20.90;53.01;94940.69;5112758;28;20031;-69
2022/05/31 05:23:55;;;;;;;8.05;3.80;;;;;;;20.94;53.27;94935.84;5113552;27;20477;-69
2022/05/31 05:26:20;;;;;;;5.80;3.83;;;;;;;21.05;53.70;94934.53;5102282;27;20027;-69
2022/05/31 05:31:33;;;;;;;6.95;4.45;;;;;;;21.06;52.95;94937.00;5112453;28;20104;-69
2022/05/31 05:33:58;;;;;;;7.03;4.30;;;;;;;20.97;53.82;94930.19;5111345;28;20122;-68
2022/05/31 05:36:24;;;;;;;8.30;5.00;;;;;;;21.06;54.21;94936.16;5078427;28;20119;-69
2022/05/31 05:38:49;;;;;;;8.70;4.43;;;;;;;21.02;54.37;94938.38;5095320;28;20050;-69
2022/05/31 05:41:15;;;;;;;9.55;4.78;;;;;;;21.03;54.16;94939.19;5095243;28;20448;-69
2022/05/31 05:43:40;;;;;;;8.73;4.47;;;;;;;21.07;54.64;94932.53;5095230;28;20035;-68
2022/05/31 05:46:17;;;;;;;8.13;4.43;;;;;;;21.08;54.50;94934.97;5113470;28;20081;-69
2022/05/31 05:48:43;;;;;;;7.68;4.03;;;;;;;21.07;54.59;94938.63;5113402;28;20042;-69
2022/05/31 05:51:16;;;;;;;8.63;4.28;;;;;;;21.20;54.58;94945.84;5113319;28;20098;-69
2022/05/31 05:53:41;;;;;;;8.63;4.35;;;;;;;21.29;54.26;94939.44;5109875;28;20036;-68
2022/05/31 05:56:07;;;;;;;7.22;4.03;;;;;;;21.33;54.66;94943.31;5111931;28;20385;-68
2022/05/31 05:58:32;;;;;;;6.78;4.07;;;;;;;21.42;54.46;94942.22;5100900;28;20035;-69
2022/05/31 06:00:58;;;;;;;8.75;4.90;;;;;;;21.54;53.81;94944.34;5091440;28;20032;-69
2022/05/31 06:04:00;;;;;;;8.40;4.97;;;;;;;21.60;54.13;94947.03;5091265;28;20422;-69
2022/05/31 06:06:25;;;;;;;8.35;4.13;;;;;;;21.63;53.98;94949.28;5073331;28;20040;-69
2022/05/31 06:08:56;;;;;;;9.07;4.55;;;;;;;21.75;53.93;94941.63;5109247;28;20067;-68
2022/05/31 06:11:24;;;;;;;7.22;4.40;;;;;;;21.89;54.03;94944.38;5114098;27;20034;-69
2022/05/31 06:13:55;;;;;;;7.82;4.30;;;;;;;21.94;52.23;94947.25;5103721;27;20170;-69
2022/05/31 06:16:22;;;;;;;6.07;4.03;;;;;;;21.99;53.27;94942.22;5087659;28;20047;-68
2022/05/31 06:18:51;;;;;;;6.97;4.00;;;;;;;22.05;52.56;94944.06;5092230;28;20035;-69
2022/05/31 06:21:17;;;;;;;6.72;4.80;;;;;;;22.11;52.08;94942.47;5074403;28;20036;-70
2022/05/31 06:23:42;;;;;;;8.73;4.57;;;;;;;21.95;52.50;94946.25;5091678;28;20426;-69
2022/05/31 06:26:08;;;;;;;6.18;4.70;;;;;;;21.77;53.42;94928.25;5110964;28;20047;-70
2022/05/31 06:28:33;;;;;;;7.57;4.47;;;;;;;22.04;53.10;94937.16;5093929;28;20417;-69
2022/05/31 06:30:59;;;;;;;8.30;4.63;;;;;;;22.14;52.97;94931.50;5111400;27;20507;-69
2022/05/31 06:33:24;;;;;;;9.60;4.95;;;;;;;22.37;52.96;94939.19;5110236;28;20409;-69
2022/05/31 06:35:50;;;;;;;7.97;4.68;;;;;;;22.43;52.59;94939.22;5109253;28;20155;-69
2022/05/31 06:38:17;;;;;;;7.40;4.80;;;;;;;22.62;52.17;94944.78;5091544;28;20465;-69
2022/05/31 06:40:42;;;;;;;7.43;4.93;;;;;;;22.68;52.02;94930.75;5111477;28;20550;-69
2022/05/31 06:43:08;;;;;;;10.77;5.25;;;;;;;22.86;51.72;94940.78;5108855;28;20032;-69
2022/05/31 06:45:34;;;;;;;9.20;5.15;;;;;;;22.88;51.73;94936.91;5110074;28;20464;-70
2022/05/31 06:47:59;;;;;;;8.95;5.53;;;;;;;22.77;52.42;94932.22;5092616;28;20051;-69
2022/05/31 06:50:25;;;;;;;7.68;5.28;;;;;;;22.78;52.67;94925.88;5110947;28;20481;-69
2022/05/31 06:58:22;;;;;;;11.80;4.95;;;;;;;23.00;50.49;94923.94;5111086;28;20046;-69
2022/05/31 07:00:48;;;;;;;8.23;5.10;;;;;;;23.02;51.00;94913.97;5110706;28;20058;-69
2022/05/31 07:03:13;;;;;;;7.72;4.85;;;;;;;23.22;50.49;94929.88;5111812;28;20429;-69
2022/05/31 07:05:40;;;;;;;6.45;5.15;;;;;;;23.24;49.93;94922.53;5110546;28;20114;-69
2022/05/31 07:08:05;;;;;;;8.13;4.85;;;;;;;23.42;50.05;94925.41;5110652;28;20035;-69
2022/05/31 07:10:31;;;;;;;12.77;5.22;;;;;;;23.54;50.04;94932.72;5110603;28;20485;-69
2022/05/31 07:12:56;;;;;;;6.45;4.63;;;;;;;23.59;50.18;94930.28;5112011;28;20035;-69
2022/05/31 07:15:22;;;;;;;8.30;4.30;;;;;;;23.69;49.40;94928.03;5111522;28;20024;-69
2022/05/31 07:17:47;;;;;;;6.60;4.40;;;;;;;23.82;49.20;94917.47;5110242;28;20046;-69
2022/05/31 07:20:13;;;;;;;7.13;4.82;;;;;;;24.01;49.26;94930.88;5110414;28;20523;-69
2022/05/31 07:22:38;;;;;;;8.88;5.28;;;;;;;24.07;48.96;94922.91;5110429;28;20100;-69
2022/05/31 07:25:05;;;;;;;8.18;5.20;;;;;;;24.13;48.78;94925.78;5110389;28;20020;-69
2022/05/31 07:27:30;;;;;;;7.00;4.35;;;;;;;24.20;48.25;94914.09;5110143;28;20140;-68
2022/05/31 07:29:56;;;;;;;11.05;4.63;;;;;;;24.45;47.83;94924.84;5111582;28;20031;-69
2022/05/31 07:32:21;;;;;;;7.05;4.97;;;;;;;24.53;46.14;94927.28;5110324;28;20037;-69
2022/05/31 07:34:48;;;;;;;8.80;4.47;;;;;;;24.55;46.92;94923.63;5111454;28;20121;-69
2022/05/31 07:37:14;;;;;;;10.07;4.70;;;;;;;24.55;46.07;94918.31;5093350;28;20064;-69
2022/05/31 07:39:40;;;;;;;7.25;4.82;;;;;;;24.61;46.36;94928.06;5093248;28;20076;-70
2022/05/31 07:42:06;;;;;;;10.43;4.70;;;;;;;24.79;46.49;94919.41;5111376;28;20063;-69
2022/05/31 07:44:32;;;;;;;9.60;4.78;;;;;;;24.89;45.89;94919.75;5111253;28;20024;-71
2022/05/31 07:46:59;;;;;;;7.90;4.47;;;;;;;24.94;46.60;94915.44;5109977;28;20035;-69
2022/05/31 07:49:24;;;;;;;9.00;4.97;;;;;;;25.01;45.15;94918.03;5093301;28;20043;-69
2022/05/31 07:51:50;;;;;;;8.32;4.80;;;;;;;25.02;44.38;94921.50;5109899;28;20039;-69
2022/05/31 07:54:15;;;;;;;7.50;4.80;;;;;;;24.98;45.42;94900.69;5111281;28;20027;-69
2022/05/31 07:56:41;;;;;;;10.32;4.80;;;;;;;25.22;45.26;94911.59;5109940;28;20036;-69
2022/05/31 07:59:07;;;;;;;7.57;4.63;;;;;;;25.25;44.93;94902.38;5111446;28;20019;-69
2022/05/31 08:01:32;;;;;;;8.70;4.75;;;;;;;25.46;44.35;94909.16;5111280;28;20119;-70
2022/05/31 08:03:58;;;;;;;12.43;4.72;;;;;;;25.60;44.87;94906.19;5109768;28;20051;-69
2022/05/31 08:06:28;;;;;;;10.95;4.97;;;;;;;25.65;44.85;94905.53;5110990;28;20024;-69
2022/05/31 08:08:53;;;;;;;12.50;5.10;;;;;;;25.73;44.35;94902.59;5109714;28;20038;-69
2022/05/31 08:11:24;;;;;;;9.63;4.35;;;;;;;25.91;44.43;94903.66;5092778;28;20028;-69
2022/05/31 08:13:49;;;;;;;10.23;5.13;;;;;;;25.96;44.12;94903.81;5109796;28;20051;-69
2022/05/31 08:16:16;;;;;;;8.95;5.00;;;;;;;25.96;43.68;94903.81;5109757;28;20073;-69
2022/05/31 08:18:42;;;;;;;9.80;5.00;;;;;;;25.96;42.86;94909.16;5092798;28;20114;-69
2022/05/31 08:21:10;;;;;;;13.52;4.43;;;;;;;26.02;43.31;94908.25;5109771;28;20559;-69
2022/05/31 08:23:35;;;;;;;6.93;4.10;;;;;;;26.10;42.08;94910.63;5111350;28;20035;-69
2022/05/31 08:26:03;;;;;;;9.13;4.47;;;;;;;26.14;41.43;94908.38;5076218;28;20060;-69
2022/05/31 08:28:29;;;;;;;8.73;4.30;;;;;;;26.20;42.02;94904.81;5109739;28;20043;-69
2022/05/31 08:31:17;;;;;;;10.77;4.68;;;;;;;26.18;41.16;94894.38;5110835;28;20032;-70
2022/05/31 08:33:42;;;;;;;8.68;4.45;;;;;;;26.17;41.35;94890.09;5109499;28;20028;-69
2022/05/31 08:36:08;;;;;;;7.35;4.35;;;;;;;25.95;41.51;94897.69;5110790;28;20062;-69
2022/05/31 08:38:33;;;;;;;9.05;4.60;;;;;;;26.01;42.78;94896.81;5109642;28;20035;-69
2022/05/31 08:41:01;;;;;;;11.13;4.38;;;;;;;26.16;42.49;94899.13;5111106;28;20066;-70
2022/05/31 08:43:57;;;;;;;11.60;4.97;;;;;;;26.28;42.19;94899.19;5110595;28;20034;-69
2022/05/31 08:46:28;;;;;;;9.05;4.97;;;;;;;26.43;41.81;94894.28;5108097;28;20650;-69
2022/05/31 08:48:57;;;;;;;8.07;4.50;;;;;;;26.48;41.34;94891.78;5110635;28;20050;-69
2022/05/31 08:57:14;;;;;;;9.38;4.43;;;;;;;26.41;39.55;94867.09;5063725;27;20056;-69
2022/05/31 08:59:55;;;;;;;10.90;4.10;;;;;;;26.39;39.58;94881.66;5113114;28;20516;-69
2022/05/31 09:02:54;;;;;;;8.02;4.38;;;;;;;26.48;40.64;94878.47;5096593;28;20413;-69
2022/05/31 09:05:29;;;;;;;8.20;4.10;;;;;;;26.48;39.03;94873.13;5110983;28;20121;-69
2022/05/31 09:08:01;;;;;;;6.75;3.63;;;;;;;26.62;38.54;94881.00;5096605;28;20059;-69
2022/05/31 09:10:40;;;;;;;8.70;5.00;;;;;;;26.62;39.03;94873.81;5096669;28;20088;-69
2022/05/31 09:13:15;;;;;;;8.45;4.00;;;;;;;26.58;40.37;94877.97;5096376;28;20040;-69
2022/05/31 09:15:57;;;;;;;7.47;4.10;;;;;;;26.65;39.30;94876.00;5114000;28;20038;-69
2022/05/31 09:18:26;;;;;;;6.82;4.20;;;;;;;26.39;39.09;94871.81;5112885;28;20039;-69
2022/05/31 09:20:53;;;;;;;6.90;4.10;;;;;;;26.38;40.31;94869.38;5113867;28;20024;-69
2022/05/31 09:23:21;;;;;;;7.05;4.03;;;;;;;26.21;41.24;94858.50;5112830;28;20063;-69
2022/05/31 09:25:49;;;;;;;12.90;4.40;;;;;;;26.36;40.76;94872.28;5112646;28;20051;-69
2022/05/31 09:28:35;;;;;;;7.25;3.85;;;;;;;26.38;39.94;94864.84;5095934;28;20508;-69
2022/05/31 09:31:02;;;;;;;6.53;3.78;;;;;;;26.51;40.56;94858.59;5096085;28;20032;-69
2022/05/31 09:33:39;;;;;;;8.60;3.97;;;;;;;26.67;40.18;94859.81;5095585;28;20104;-69
2022/05/31 09:36:11;;;;;;;8.48;4.30;;;;;;;26.85;40.44;94864.28;5095558;28;20027;-69
2022/05/31 09:39:00;;;;;;;11.15;4.40;;;;;;;26.96;39.63;94864.28;5112503;28;20039;-69
2022/05/31 09:41:35;;;;;;;7.90;4.72;;;;;;;27.01;39.06;94852.97;5113577;28;20126;-69
2022/05/31 09:44:11;;;;;;;9.73;4.35;;;;;;;27.14;39.65;94857.28;5113431;27;20469;-69
2022/05/31 09:46:48;;;;;;;9.40;4.22;;;;;;;27.23;39.68;94855.13;5112145;28;20070;-69
2022/05/31 09:49:39;;;;;;;9.75;4.55;;;;;;;27.26;38.93;94855.47;5095675;28;20042;-69
2022/05/31 09:52:09;;;;;;;8.63;4.38;;;;;;;27.25;37.50;94853.06;5112070;28;20400;-69
2022/05/31 09:58:08;;;;;;;9.23;4.07;;;;;;;26.94;38.47;94844.25;5113530;28;20051;-69
2022/05/31 10:00:33;;;;;;;8.35;3.97;;;;;;;26.96;39.12;94842.16;5095994;28;20039;-69
2022/05/31 10:03:03;;;;;;;9.82;4.20;;;;;;;27.04;38.29;94844.50;5111743;28;20441;-69
2022/05/31 10:05:29;;;;;;;6.50;4.00;;;;;;;27.10;38.34;94848.91;5112860;28;20489;-69
2022/05/31 10:07:54;;;;;;;5.70;4.30;;;;;;;27.26;38.22;94846.66;5093896;28;20043;-69
2022/05/31 10:10:34;;;;;;;7.60;3.78;;;;;;;27.31;38.72;94846.81;5111755;28;20084;-69
2022/05/31 10:13:04;;;;;;;6.88;3.50;;;;;;;27.49;38.59;94854.69;5111842;28;20034;-69
2022/05/31 10:15:30;;;;;;;;;;;;;;;27.55;37.59;94851.09;5113304;28;20027;-69
2022/05/31 10:18:04;;;;;;;7.70;3.97;;;;;;;27.46;37.36;94835.66;5111474;28;20313;-69
2022/05/31 10:20:30;;;;;;;11.98;4.20;;;;;;;27.55;38.22;94847.59;5094837;28;20063;-69
2022/05/31 10:23:06;;;;;;;9.13;4.38;;;;;;;27.61;36.53;94833.38;5094595;28;20082;-69
2022/05/31 10:25:36;;;;;;;10.57;4.10;;;;;;;27.60;37.29;94837.06;5094676;28;20545;-69
2022/05/31 10:28:04;;;;;;;8.53;3.87;;;;;;;27.65;36.69;94831.03;5094367;28;20032;-69
2022/05/31 10:30:31;;;;;;;9.65;3.90;;;;;;;27.71;37.13;94825.56;5112519;28;20031;-69
2022/05/31 10:33:07;;;;;;;8.93;4.18;;;;;;;27.77;36.76;94821.16;5094508;28;20485;-69
2022/05/31 10:35:35;;;;;;;9.00;4.13;;;;;;;27.81;37.01;94822.34;5094440;28;20056;-69
2022/05/31 10:38:10;;;;;;;7.13;3.97;;;;;;;27.88;37.35;94817.69;5077516;28;20084;-69
2022/05/31 10:40:38;;;;;;;6.57;3.90;;;;;;;28.00;36.35;94821.16;5112601;28;20114;-69
2022/05/31 10:43:37;;;;;;;6.70;4.28;;;;;;;28.01;37.20;94820.09;5112616;28;20039;-70
2022/05/31 10:46:09;;;;;;;9.53;3.90;;;;;;;28.05;36.09;94815.94;5088884;28;20032;-69
2022/05/31 10:48:37;;;;;;;8.20;4.28;;;;;;;27.95;34.79;94820.25;5094721;28;20027;-69
2022/05/31 10:51:13;;;;;;;6.05;3.97;;;;;;;27.82;35.08;94815.97;5094338;28;20028;-69
2022/05/31 10:54:00;;;;;;;8.18;3.70;;;;;;;27.80;35.25;94807.38;5110840;28;20507;-69
2022/05/31 10:56:52;;;;;;;7.80;3.53;;;;;;;27.78;36.65;94799.59;5110949;28;20020;-69
2022/05/31 10:59:20;;;;;;;8.82;3.78;;;;;;;27.84;36.53;94789.84;5110899;28;20027;-69
2022/05/31 11:02:23;;;;;;;7.30;3.40;;;;;;;28.00;35.93;94797.13;5094103;28;20031;-69
2022/05/31 11:05:19;;;;;;;7.65;3.67;;;;;;;28.03;34.73;94785.97;5111914;28;20042;-69
2022/05/31 11:13:59;;;;;;;6.45;3.40;;;;;;;27.93;35.53;94777.75;5096531;28;20046;-69
2022/05/31 11:16:55;;;;;;;9.05;3.55;;;;;;;27.98;35.75;94782.41;5111667;28;20024;-69
2022/05/31 11:19:45;;;;;;;5.90;2.95;;;;;;;28.13;35.41;94771.22;5111474;28;20512;-69
2022/05/31 11:22:46;;;;;;;8.05;3.20;;;;;;;28.27;35.59;94770.69;5111787;28;20023;-69
2022/05/31 11:25:22;;;;;;;5.65;3.20;;;;;;;28.31;34.13;94768.38;5093409;28;20462;-69
2022/05/31 11:28:06;;;;;;;6.28;3.47;;;;;;;28.37;34.27;94756.72;5111695;28;20104;-69
2022/05/31 11:31:05;;;;;;;10.77;3.45;;;;;;;28.40;35.04;94758.91;5094012;28;20054;-69
2022/05/31 11:33:49;;;;;;;6.22;3.30;;;;;;;28.46;35.50;94755.31;5111834;28;20134;-69
2022/05/31 11:36:24;;;;;;;5.40;3.13;;;;;;;28.63;34.44;94743.84;5111444;28;20031;-70
2022/05/31 11:39:22;;;;;;;11.10;4.03;;;;;;;28.62;33.19;94747.56;5093928;28;20056;-69
2022/05/31 11:42:06;;;;;;;7.43;3.00;;;;;;;28.48;33.08;94742.53;5110349;28;20508;-69
2022/05/31 11:44:47;;;;;;;7.03;3.08;;;;;;;28.56;33.87;94746.69;5110053;28;20058;-69
2022/05/31 11:47:30;;;;;;;7.80;3.00;;;;;;;28.52;32.58;94746.31;5111450;28;20553;-69
2022/05/31 11:49:59;;;;;;;7.13;2.90;;;;;;;28.60;33.41;94742.47;5095026;28;20046;-69
2022/05/31 11:52:44;;;;;;;4.07;2.88;;;;;;;28.62;33.05;94743.03;5109965;28;20557;-69
2022/05/31 11:55:28;;;;;;;5.38;3.30;;;;;;;28.35;33.69;94739.31;5093907;28;20028;-69
2022/05/31 11:58:27;;;;;;;4.90;2.83;;;;;;;28.49;33.42;94741.47;5111515;28;20040;-69
2022/05/31 12:01:02;;;;;;;6.20;2.77;;;;;;;28.59;33.20;94732.03;5109951;28;20032;-69
2022/05/31 12:03:48;;;;;;;5.22;2.83;;;;;;;28.57;32.22;94731.44;5109848;28;20063;-69
2022/05/31 12:06:50;;;;;;;4.88;2.42;;;;;;;28.27;32.02;94727.16;5111117;28;20053;-70
2022/05/31 12:09:27;;;;;;;7.00;2.65;;;;;;;28.19;33.61;94735.53;5111040;28;20028;-69
2022/05/31 12:11:55;;;;;;;4.97;2.20;;;;;;;28.15;32.33;94732.53;5093812;28;20119;-69
2022/05/31 12:14:20;;;;;;;6.25;3.03;;;;;;;28.19;32.10;94724.84;5111019;28;20539;-69